Foscoe, North Carolina
Current Conditions -  °F | °C
As of 9:15 AM on Sunday 21 Dec 2014 (Local Time) from KTNB Reporting Station
Scattered Clouds Scattered Clouds  
Wind Chill: 38°   Ceiling: Unl
Heat Index: 38°   Visibility: 10mi
Dew Point: 31°   Wind: 0mph
Humidity: 75%   Direction: NA
Pressure: 30.2"   Gusts: NA
Location:  36.1797°N, 81.8424°W
Report Text: KTNB 211415Z AUTO 00000KT 10SM SCT018 04/M01 A3020 RMK AO2 T00351006
Loading
Personal Weather Stations






























Interactive Weather Map New forecast layout! Learn more

10-Day Weather Forecast

Advertisements
Track Severe Weather on mobile